createdAt,value
2018-07-21T00:00:47.037Z,39.56
2018-07-21T00:05:50.645Z,39.49
2018-07-21T00:10:54.813Z,39.44
2018-07-21T00:15:58.333Z,39.43
2018-07-21T00:21:01.845Z,39.45
2018-07-21T00:26:05.464Z,39.43
2018-07-21T00:31:09.983Z,39.43
2018-07-21T00:36:14.197Z,39.49
2018-07-21T00:41:17.701Z,39.54
2018-07-21T00:46:21.506Z,39.55
2018-07-21T00:51:25.117Z,39.54
2018-07-21T00:56:31.620Z,39.54
2018-07-21T01:01:37.697Z,39.53
2018-07-21T01:06:43.059Z,39.54
2018-07-21T01:11:47.432Z,39.47
2018-07-21T01:16:50.965Z,39.50
2018-07-21T01:21:55.333Z,39.51
2018-07-21T01:27:00.331Z,39.48
2018-07-21T01:32:04.594Z,39.41
2018-07-21T01:37:09.698Z,39.40
2018-07-21T01:42:15.294Z,39.43
2018-07-21T01:47:18.798Z,39.45
2018-07-21T01:52:23.699Z,39.41
2018-07-21T01:57:27.441Z,39.43
2018-07-21T02:02:31.069Z,39.40
2018-07-21T02:07:37.009Z,39.40
2018-07-21T02:12:42.303Z,39.41
2018-07-21T02:17:47.432Z,39.36
2018-07-21T02:22:51.444Z,39.34
2018-07-21T02:27:55.316Z,39.32
2018-07-21T02:33:01.435Z,39.35
2018-07-21T02:38:04.999Z,39.32
2018-07-21T02:43:08.814Z,39.36
2018-07-21T02:48:12.344Z,39.29
2018-07-21T02:53:16.023Z,39.30
2018-07-21T02:58:20.090Z,39.28
2018-07-21T03:03:24.677Z,39.30
2018-07-21T03:08:28.640Z,39.27
2018-07-21T03:13:34.026Z,39.26
2018-07-21T03:18:37.633Z,39.26
2018-07-21T03:23:41.126Z,39.16
2018-07-21T03:28:44.557Z,39.15
2018-07-21T03:33:48.062Z,39.09
2018-07-21T03:38:51.890Z,39.09
2018-07-21T03:43:55.709Z,39.10
2018-07-21T03:48:59.545Z,39.04
2018-07-21T03:54:03.098Z,39.01
2018-07-21T03:59:06.626Z,39.08
2018-07-21T04:04:10.369Z,39.04
2018-07-21T04:09:13.896Z,39.05
2018-07-21T04:14:17.539Z,39.06
2018-07-21T04:19:21.353Z,39.07
2018-07-21T04:24:24.945Z,39.08
2018-07-21T04:29:28.493Z,39.09
2018-07-21T04:34:32.192Z,39.12
2018-07-21T04:39:35.670Z,39.16
2018-07-21T04:44:39.653Z,39.17
2018-07-21T04:49:43.205Z,39.20
2018-07-21T04:54:46.677Z,39.25
2018-07-21T04:59:50.165Z,39.29
2018-07-21T05:04:55.221Z,39.32
2018-07-21T05:09:58.875Z,39.35
2018-07-21T05:15:02.414Z,39.39
2018-07-21T05:20:06.827Z,39.38
2018-07-21T05:25:10.301Z,39.42
2018-07-21T05:30:15.093Z,39.37
2018-07-21T05:35:18.881Z,39.39
2018-07-21T05:40:37.137Z,39.46
2018-07-21T05:45:40.770Z,39.46
2018-07-21T05:50:44.350Z,39.52
2018-07-21T05:55:48.016Z,39.63
2018-07-21T06:00:51.552Z,39.70
2018-07-21T06:05:55.045Z,39.79
2018-07-21T06:10:58.908Z,39.77
2018-07-21T06:16:02.905Z,39.77
2018-07-21T06:21:06.722Z,39.76
2018-07-21T06:26:10.541Z,39.72
2018-07-21T06:31:14.101Z,39.66
2018-07-21T06:36:17.585Z,39.65
2018-07-21T06:41:21.288Z,39.65
2018-07-21T06:46:25.126Z,39.63
2018-07-21T06:51:28.690Z,39.65
2018-07-21T06:56:32.153Z,39.70
2018-07-21T07:01:35.881Z,39.71
2018-07-21T07:06:39.380Z,39.56
2018-07-21T07:11:42.915Z,39.56
2018-07-21T07:16:46.478Z,39.61
2018-07-21T07:21:50.130Z,39.66
2018-07-21T07:26:53.757Z,39.60
2018-07-21T07:31:57.348Z,39.59
2018-07-21T07:37:00.884Z,39.49
2018-07-21T07:42:04.339Z,39.48
2018-07-21T07:47:08.117Z,39.34
2018-07-21T07:52:11.589Z,39.40
2018-07-21T07:57:15.132Z,39.40
2018-07-21T08:02:18.889Z,39.49
2018-07-21T08:07:23.192Z,39.75
2018-07-21T08:12:26.693Z,39.66
2018-07-21T08:17:30.229Z,39.81
2018-07-21T08:22:33.697Z,39.81
2018-07-21T08:27:37.202Z,39.87
2018-07-21T08:32:41.791Z,39.87
2018-07-21T08:37:45.304Z,39.83
2018-07-21T08:42:48.729Z,39.78
2018-07-21T08:47:52.451Z,39.84
2018-07-21T08:52:55.900Z,39.78
2018-07-21T08:57:59.566Z,39.73
2018-07-21T09:03:03.305Z,39.84
2018-07-21T09:08:06.799Z,39.84
2018-07-21T09:13:10.415Z,39.86
2018-07-21T09:18:13.810Z,39.78
2018-07-21T09:23:17.298Z,39.85
2018-07-21T09:28:20.869Z,39.72
2018-07-21T09:33:24.395Z,39.72
2018-07-21T09:38:27.907Z,39.87
2018-07-21T09:43:31.381Z,39.92
2018-07-21T09:48:35.142Z,40.00
2018-07-21T09:53:38.757Z,39.94
2018-07-21T09:58:42.228Z,40.05
2018-07-21T10:03:46.093Z,39.98
2018-07-21T10:08:49.793Z,40.06
2018-07-21T10:13:53.830Z,40.13
2018-07-21T10:18:57.604Z,40.18
2018-07-21T10:24:05.298Z,40.23
2018-07-21T10:29:12.318Z,40.30
2018-07-21T10:34:16.002Z,40.29
2018-07-21T10:39:19.560Z,40.39
2018-07-21T10:44:23.290Z,40.35
2018-07-21T10:49:26.835Z,40.46
2018-07-21T10:54:30.467Z,40.55
2018-07-21T10:59:33.984Z,40.66
2018-07-21T11:04:37.349Z,40.67
2018-07-21T11:09:41.025Z,40.63
2018-07-21T11:14:45.001Z,40.70
2018-07-21T11:19:48.654Z,40.80
2018-07-21T11:24:52.375Z,40.75
2018-07-21T11:29:55.922Z,40.80
2018-07-21T11:34:59.693Z,40.07
2018-07-21T11:40:03.427Z,39.96
2018-07-21T11:45:07.942Z,39.80
2018-07-21T11:50:11.458Z,39.76
2018-07-21T11:55:15.086Z,39.81
2018-07-21T12:00:18.591Z,39.77
2018-07-21T12:05:22.324Z,39.79
2018-07-21T12:10:25.887Z,39.86
2018-07-21T12:15:29.402Z,39.96
2018-07-21T12:20:33.258Z,39.99
2018-07-21T12:25:37.118Z,39.79
2018-07-21T12:30:40.658Z,39.83
2018-07-21T12:35:44.276Z,39.95
2018-07-21T12:40:47.741Z,39.99
2018-07-21T12:45:51.273Z,40.65
2018-07-21T12:50:54.973Z,40.83
2018-07-21T12:55:58.509Z,41.03
2018-07-21T13:01:02.338Z,40.48
2018-07-21T13:06:05.922Z,40.24
2018-07-21T13:11:09.696Z,40.86
2018-07-21T13:16:13.329Z,40.96
2018-07-21T13:21:16.829Z,41.17
2018-07-21T13:26:21.486Z,41.24
2018-07-21T13:31:25.357Z,41.25
2018-07-21T13:36:28.973Z,40.48
2018-07-21T13:41:32.538Z,40.29
2018-07-21T13:46:36.059Z,40.32
2018-07-21T13:51:39.502Z,40.19
2018-07-21T13:56:43.333Z,39.97
2018-07-21T14:01:47.092Z,40.05
2018-07-21T14:06:50.593Z,40.05
2018-07-21T14:11:54.184Z,40.18
2018-07-21T14:16:57.999Z,40.31
2018-07-21T14:22:01.849Z,40.10
2018-07-21T14:27:05.686Z,40.26
2018-07-21T14:32:09.321Z,40.15
2018-07-21T14:37:12.910Z,40.26
2018-07-21T14:42:16.652Z,40.33
2018-07-21T14:47:20.166Z,40.25
2018-07-21T14:52:23.833Z,40.12
2018-07-21T14:57:27.384Z,40.28
2018-07-21T15:02:31.359Z,40.42
2018-07-21T15:07:34.916Z,40.34
2018-07-21T15:12:38.828Z,40.35
2018-07-21T15:17:42.555Z,40.38
2018-07-21T15:22:46.183Z,40.41
2018-07-21T15:27:49.896Z,40.34
2018-07-21T15:32:53.496Z,40.29
2018-07-21T15:37:57.151Z,40.38
2018-07-21T15:43:00.730Z,40.39
2018-07-21T15:48:04.341Z,40.47
2018-07-21T15:53:07.932Z,40.55
2018-07-21T15:58:11.435Z,40.38
2018-07-21T16:03:15.560Z,40.16
2018-07-21T16:08:19.561Z,40.10
2018-07-21T16:13:23.018Z,40.15
2018-07-21T16:18:26.623Z,40.11
2018-07-21T16:23:30.226Z,40.11
2018-07-21T16:28:33.733Z,40.09
2018-07-21T16:33:37.417Z,40.06
2018-07-21T16:38:41.179Z,40.08
2018-07-21T16:43:44.814Z,40.08
2018-07-21T16:48:49.477Z,40.02
2018-07-21T16:53:53.329Z,39.97
2018-07-21T16:58:57.149Z,39.96
2018-07-21T17:04:00.642Z,39.97
2018-07-21T17:09:05.965Z,39.94
2018-07-21T17:14:10.299Z,39.91
2018-07-21T17:19:14.231Z,39.83
2018-07-21T17:24:17.710Z,39.90
2018-07-21T17:29:21.677Z,39.88
2018-07-21T17:34:25.952Z,39.89
2018-07-21T17:39:29.824Z,39.91
2018-07-21T17:44:33.721Z,39.86
2018-07-21T17:49:37.353Z,39.83
2018-07-21T17:54:41.234Z,39.89
2018-07-21T17:59:44.843Z,39.75
2018-07-21T18:04:48.909Z,39.65
2018-07-21T18:09:52.557Z,39.61
2018-07-21T18:14:56.563Z,39.56
2018-07-21T18:20:00.091Z,39.53
2018-07-21T18:25:03.565Z,39.42
2018-07-21T18:30:07.201Z,39.42
2018-07-21T18:35:10.870Z,39.49
2018-07-21T18:40:16.416Z,39.55
2018-07-21T18:45:20.390Z,39.48
2018-07-21T18:50:24.265Z,39.47
2018-07-21T18:55:27.870Z,39.45
2018-07-21T19:00:31.402Z,39.47
2018-07-21T19:05:35.195Z,39.48
2018-07-21T19:10:38.891Z,39.46
2018-07-21T19:15:47.714Z,39.43
2018-07-21T19:20:56.821Z,39.42
2018-07-21T19:26:05.723Z,39.51
2018-07-21T19:31:09.224Z,39.64
2018-07-21T19:36:12.759Z,39.73
2018-07-21T19:41:21.534Z,39.80
2018-07-21T19:46:25.054Z,39.73
2018-07-21T19:51:28.686Z,39.77
2018-07-21T19:56:32.150Z,39.81
2018-07-21T20:01:35.665Z,39.74
2018-07-21T20:06:39.230Z,39.89
2018-07-21T20:11:43.039Z,40.21
2018-07-21T20:16:46.539Z,40.87
2018-07-21T20:21:50.145Z,41.02
2018-07-21T20:26:53.750Z,41.01
2018-07-21T20:31:57.443Z,41.08
2018-07-21T20:37:01.090Z,41.15
2018-07-21T20:42:04.670Z,41.11
2018-07-21T20:47:08.573Z,40.95
2018-07-21T20:52:12.192Z,40.95
2018-07-21T20:57:15.907Z,40.86
2018-07-21T21:02:19.823Z,40.90
2018-07-21T21:07:23.327Z,40.91
2018-07-21T21:12:26.956Z,40.88
2018-07-21T21:17:30.644Z,40.94
2018-07-21T21:22:34.304Z,40.90
2018-07-21T21:27:37.769Z,40.89
2018-07-21T21:32:41.489Z,40.91
2018-07-21T21:37:45.076Z,40.91
2018-07-21T21:42:48.830Z,40.90
2018-07-21T21:47:52.998Z,40.90
2018-07-21T21:52:57.035Z,40.88
2018-07-21T21:58:00.722Z,40.86
2018-07-21T22:03:04.469Z,40.90
2018-07-21T22:08:08.027Z,40.83
2018-07-21T22:13:11.779Z,40.86
2018-07-21T22:18:15.363Z,40.81
2018-07-21T22:23:19.050Z,40.81
2018-07-21T22:28:23.210Z,40.81
2018-07-21T22:33:26.777Z,40.82
2018-07-21T22:38:30.245Z,41.01
2018-07-21T22:43:33.755Z,41.10
2018-07-21T22:48:37.433Z,41.08
2018-07-21T22:53:41.163Z,41.06
2018-07-21T22:58:44.639Z,41.08
2018-07-21T23:03:48.277Z,41.07
2018-07-21T23:08:51.890Z,41.06
2018-07-21T23:13:55.494Z,40.36
2018-07-21T23:18:58.990Z,40.07
2018-07-21T23:24:02.758Z,40.01
2018-07-21T23:29:06.568Z,40.91
2018-07-21T23:34:10.407Z,41.15
2018-07-21T23:39:14.176Z,41.27
2018-07-21T23:44:17.777Z,41.28
2018-07-21T23:49:21.786Z,41.10
2018-07-21T23:54:26.864Z,41.04
2018-07-21T23:59:31.775Z,40.97
